sensor_id;sensor_type;location;lat;lon;timestamp;P1;durP1;ratioP1;P2;durP2;ratioP2
64562;SDS011;50961;48.184;11.636;2022-07-06T00:01:34;4.72;;;3.35;;
64562;SDS011;50961;48.184;11.636;2022-07-06T00:04:03;5.85;;;3.40;;
64562;SDS011;50961;48.184;11.636;2022-07-06T00:06:29;6.07;;;3.33;;
64562;SDS011;50961;48.184;11.636;2022-07-06T00:08:54;5.95;;;3.42;;
64562;SDS011;50961;48.184;11.636;2022-07-06T00:11:20;5.10;;;3.50;;
64562;SDS011;50961;48.184;11.636;2022-07-06T00:13:46;5.38;;;3.60;;
64562;SDS011;50961;48.184;11.636;2022-07-06T00:16:11;6.22;;;3.67;;
64562;SDS011;50961;48.184;11.636;2022-07-06T00:18:37;4.35;;;3.30;;
64562;SDS011;50961;48.184;11.636;2022-07-06T00:21:02;4.25;;;3.45;;
64562;SDS011;50961;48.184;11.636;2022-07-06T00:23:28;6.13;;;3.40;;
64562;SDS011;50961;48.184;11.636;2022-07-06T00:25:53;5.85;;;3.17;;
64562;SDS011;50961;48.184;11.636;2022-07-06T00:28:18;6.40;;;3.58;;
64562;SDS011;50961;48.184;11.636;2022-07-06T00:30:44;5.78;;;3.80;;
64562;SDS011;50961;48.184;11.636;2022-07-06T00:33:09;4.63;;;3.25;;
64562;SDS011;50961;48.184;11.636;2022-07-06T00:35:35;4.50;;;3.15;;
64562;SDS011;50961;48.184;11.636;2022-07-06T00:38:00;4.65;;;3.47;;
64562;SDS011;50961;48.184;11.636;2022-07-06T00:40:25;4.93;;;3.20;;
64562;SDS011;50961;48.184;11.636;2022-07-06T00:42:51;5.07;;;3.47;;
64562;SDS011;50961;48.184;11.636;2022-07-06T00:45:17;4.22;;;3.55;;
64562;SDS011;50961;48.184;11.636;2022-07-06T00:47:43;5.25;;;3.20;;
64562;SDS011;50961;48.184;11.636;2022-07-06T00:50:12;5.85;;;3.60;;
64562;SDS011;50961;48.184;11.636;2022-07-06T00:52:38;5.90;;;3.30;;
64562;SDS011;50961;48.184;11.636;2022-07-06T00:55:04;5.30;;;3.40;;
64562;SDS011;50961;48.184;11.636;2022-07-06T00:57:30;5.72;;;3.40;;
64562;SDS011;50961;48.184;11.636;2022-07-06T00:59:56;5.13;;;3.72;;
64562;SDS011;50961;48.184;11.636;2022-07-06T01:02:21;5.10;;;3.22;;
64562;SDS011;50961;48.184;11.636;2022-07-06T01:04:47;6.25;;;3.38;;
64562;SDS011;50961;48.184;11.636;2022-07-06T01:07:13;4.70;;;3.30;;
64562;SDS011;50961;48.184;11.636;2022-07-06T01:09:38;4.90;;;3.28;;
64562;SDS011;50961;48.184;11.636;2022-07-06T01:12:04;3.80;;;3.17;;
64562;SDS011;50961;48.184;11.636;2022-07-06T01:14:30;5.15;;;3.53;;
64562;SDS011;50961;48.184;11.636;2022-07-06T01:16:56;4.93;;;3.30;;
64562;SDS011;50961;48.184;11.636;2022-07-06T01:19:22;3.78;;;3.38;;
64562;SDS011;50961;48.184;11.636;2022-07-06T01:21:48;4.05;;;3.22;;
64562;SDS011;50961;48.184;11.636;2022-07-06T01:24:13;4.93;;;3.40;;
64562;SDS011;50961;48.184;11.636;2022-07-06T01:26:38;4.22;;;3.13;;
64562;SDS011;50961;48.184;11.636;2022-07-06T01:29:04;5.85;;;3.65;;
64562;SDS011;50961;48.184;11.636;2022-07-06T01:31:29;5.70;;;3.30;;
64562;SDS011;50961;48.184;11.636;2022-07-06T01:33:55;4.60;;;3.28;;
64562;SDS011;50961;48.184;11.636;2022-07-06T01:36:21;5.38;;;3.15;;
64562;SDS011;50961;48.184;11.636;2022-07-06T01:38:51;7.28;;;3.38;;
64562;SDS011;50961;48.184;11.636;2022-07-06T01:41:18;4.97;;;3.40;;
64562;SDS011;50961;48.184;11.636;2022-07-06T01:43:44;7.75;;;3.40;;
64562;SDS011;50961;48.184;11.636;2022-07-06T01:46:10;5.65;;;3.40;;
64562;SDS011;50961;48.184;11.636;2022-07-06T01:48:36;4.68;;;3.28;;
64562;SDS011;50961;48.184;11.636;2022-07-06T01:51:02;4.18;;;3.28;;
64562;SDS011;50961;48.184;11.636;2022-07-06T01:53:28;6.15;;;3.30;;
64562;SDS011;50961;48.184;11.636;2022-07-06T01:55:54;5.38;;;3.38;;
64562;SDS011;50961;48.184;11.636;2022-07-06T01:58:19;4.43;;;3.28;;
64562;SDS011;50961;48.184;11.636;2022-07-06T02:00:44;4.70;;;3.33;;
64562;SDS011;50961;48.184;11.636;2022-07-06T02:03:10;6.28;;;3.70;;
64562;SDS011;50961;48.184;11.636;2022-07-06T02:05:35;4.40;;;3.08;;
64562;SDS011;50961;48.184;11.636;2022-07-06T02:08:00;5.65;;;3.30;;
64562;SDS011;50961;48.184;11.636;2022-07-06T02:10:26;4.22;;;3.40;;
64562;SDS011;50961;48.184;11.636;2022-07-06T02:12:51;3.70;;;3.25;;
64562;SDS011;50961;48.184;11.636;2022-07-06T02:15:16;4.25;;;3.22;;
64562;SDS011;50961;48.184;11.636;2022-07-06T02:17:42;4.10;;;3.50;;
64562;SDS011;50961;48.184;11.636;2022-07-06T02:20:07;5.20;;;3.35;;
64562;SDS011;50961;48.184;11.636;2022-07-06T02:22:33;4.20;;;3.33;;
64562;SDS011;50961;48.184;11.636;2022-07-06T02:24:59;4.28;;;3.22;;
64562;SDS011;50961;48.184;11.636;2022-07-06T02:27:24;3.55;;;2.90;;
64562;SDS011;50961;48.184;11.636;2022-07-06T02:29:50;4.80;;;3.10;;
64562;SDS011;50961;48.184;11.636;2022-07-06T02:32:15;4.13;;;3.20;;
64562;SDS011;50961;48.184;11.636;2022-07-06T02:34:41;5.43;;;3.10;;
64562;SDS011;50961;48.184;11.636;2022-07-06T02:37:06;4.72;;;3.30;;
64562;SDS011;50961;48.184;11.636;2022-07-06T02:39:31;8.13;;;3.30;;
64562;SDS011;50961;48.184;11.636;2022-07-06T02:41:57;4.60;;;3.17;;
64562;SDS011;50961;48.184;11.636;2022-07-06T02:44:22;3.85;;;3.10;;
64562;SDS011;50961;48.184;11.636;2022-07-06T02:46:47;3.22;;;2.83;;
64562;SDS011;50961;48.184;11.636;2022-07-06T02:49:13;5.45;;;3.47;;
64562;SDS011;50961;48.184;11.636;2022-07-06T02:51:38;5.43;;;3.42;;
64562;SDS011;50961;48.184;11.636;2022-07-06T02:54:04;4.15;;;3.00;;
64562;SDS011;50961;48.184;11.636;2022-07-06T02:56:29;7.72;;;3.30;;
64562;SDS011;50961;48.184;11.636;2022-07-06T02:58:55;3.92;;;3.22;;
64562;SDS011;50961;48.184;11.636;2022-07-06T03:01:20;4.60;;;3.35;;
64562;SDS011;50961;48.184;11.636;2022-07-06T03:03:45;4.22;;;3.20;;
64562;SDS011;50961;48.184;11.636;2022-07-06T03:06:11;5.00;;;3.28;;
64562;SDS011;50961;48.184;11.636;2022-07-06T03:08:36;5.40;;;3.47;;
64562;SDS011;50961;48.184;11.636;2022-07-06T03:11:02;5.32;;;3.50;;
64562;SDS011;50961;48.184;11.636;2022-07-06T03:13:27;3.95;;;3.20;;
64562;SDS011;50961;48.184;11.636;2022-07-06T03:15:54;6.38;;;3.35;;
64562;SDS011;50961;48.184;11.636;2022-07-06T03:18:19;4.53;;;3.30;;
64562;SDS011;50961;48.184;11.636;2022-07-06T03:20:45;4.93;;;3.33;;
64562;SDS011;50961;48.184;11.636;2022-07-06T03:23:10;4.13;;;3.60;;
64562;SDS011;50961;48.184;11.636;2022-07-06T03:25:35;6.53;;;3.53;;
64562;SDS011;50961;48.184;11.636;2022-07-06T03:28:01;5.63;;;3.55;;
64562;SDS011;50961;48.184;11.636;2022-07-06T03:30:26;4.53;;;3.45;;
64562;SDS011;50961;48.184;11.636;2022-07-06T03:32:52;8.00;;;4.07;;
64562;SDS011;50961;48.184;11.636;2022-07-06T03:35:17;6.45;;;4.10;;
64562;SDS011;50961;48.184;11.636;2022-07-06T03:37:43;7.53;;;3.72;;
64562;SDS011;50961;48.184;11.636;2022-07-06T03:40:08;6.30;;;4.07;;
64562;SDS011;50961;48.184;11.636;2022-07-06T03:42:35;6.93;;;4.22;;
64562;SDS011;50961;48.184;11.636;2022-07-06T03:45:01;5.88;;;4.35;;
64562;SDS011;50961;48.184;11.636;2022-07-06T03:47:26;5.65;;;4.32;;
64562;SDS011;50961;48.184;11.636;2022-07-06T03:49:52;8.20;;;4.65;;
64562;SDS011;50961;48.184;11.636;2022-07-06T03:52:17;7.47;;;4.40;;
64562;SDS011;50961;48.184;11.636;2022-07-06T03:54:42;5.63;;;4.43;;
64562;SDS011;50961;48.184;11.636;2022-07-06T03:57:08;5.88;;;4.35;;
64562;SDS011;50961;48.184;11.636;2022-07-06T03:59:33;7.43;;;4.97;;
64562;SDS011;50961;48.184;11.636;2022-07-06T04:01:58;7.53;;;4.40;;
64562;SDS011;50961;48.184;11.636;2022-07-06T04:04:24;8.43;;;4.75;;
64562;SDS011;50961;48.184;11.636;2022-07-06T04:06:49;6.95;;;4.50;;
64562;SDS011;50961;48.184;11.636;2022-07-06T04:09:15;6.50;;;4.50;;
64562;SDS011;50961;48.184;11.636;2022-07-06T04:11:40;8.48;;;5.13;;
64562;SDS011;50961;48.184;11.636;2022-07-06T04:14:05;7.22;;;5.05;;
64562;SDS011;50961;48.184;11.636;2022-07-06T04:16:31;9.15;;;4.88;;
64562;SDS011;50961;48.184;11.636;2022-07-06T04:18:56;6.90;;;5.05;;
64562;SDS011;50961;48.184;11.636;2022-07-06T04:21:22;6.75;;;4.57;;
64562;SDS011;50961;48.184;11.636;2022-07-06T04:23:47;9.10;;;5.00;;
64562;SDS011;50961;48.184;11.636;2022-07-06T04:26:12;7.60;;;5.00;;
64562;SDS011;50961;48.184;11.636;2022-07-06T04:28:38;6.63;;;4.68;;
64562;SDS011;50961;48.184;11.636;2022-07-06T04:31:03;9.77;;;5.53;;
64562;SDS011;50961;48.184;11.636;2022-07-06T04:33:28;8.40;;;5.43;;
64562;SDS011;50961;48.184;11.636;2022-07-06T04:35:54;7.35;;;5.50;;
64562;SDS011;50961;48.184;11.636;2022-07-06T04:38:19;7.53;;;5.20;;
64562;SDS011;50961;48.184;11.636;2022-07-06T04:40:45;7.50;;;5.50;;
64562;SDS011;50961;48.184;11.636;2022-07-06T04:43:11;9.80;;;5.30;;
64562;SDS011;50961;48.184;11.636;2022-07-06T04:45:37;7.60;;;5.68;;
64562;SDS011;50961;48.184;11.636;2022-07-06T04:48:02;9.18;;;5.57;;
64562;SDS011;50961;48.184;11.636;2022-07-06T04:50:28;7.60;;;5.78;;
64562;SDS011;50961;48.184;11.636;2022-07-06T04:52:53;10.25;;;5.95;;
64562;SDS011;50961;48.184;11.636;2022-07-06T04:55:19;9.68;;;6.15;;
64562;SDS011;50961;48.184;11.636;2022-07-06T04:57:44;7.50;;;5.78;;
64562;SDS011;50961;48.184;11.636;2022-07-06T05:00:10;10.23;;;6.15;;
64562;SDS011;50961;48.184;11.636;2022-07-06T05:02:35;8.70;;;6.13;;
64562;SDS011;50961;48.184;11.636;2022-07-06T05:05:01;9.05;;;6.32;;
64562;SDS011;50961;48.184;11.636;2022-07-06T05:07:27;8.23;;;6.13;;
64562;SDS011;50961;48.184;11.636;2022-07-06T05:09:54;9.75;;;6.47;;
64562;SDS011;50961;48.184;11.636;2022-07-06T05:12:20;11.15;;;6.13;;
64562;SDS011;50961;48.184;11.636;2022-07-06T05:14:45;10.65;;;7.03;;
64562;SDS011;50961;48.184;11.636;2022-07-06T05:17:11;10.80;;;6.70;;
64562;SDS011;50961;48.184;11.636;2022-07-06T05:19:36;11.82;;;7.28;;
64562;SDS011;50961;48.184;11.636;2022-07-06T05:22:02;10.07;;;6.75;;
64562;SDS011;50961;48.184;11.636;2022-07-06T05:24:27;9.52;;;6.30;;
64562;SDS011;50961;48.184;11.636;2022-07-06T05:26:52;11.02;;;6.60;;
64562;SDS011;50961;48.184;11.636;2022-07-06T05:29:18;9.27;;;6.15;;
64562;SDS011;50961;48.184;11.636;2022-07-06T05:31:43;9.90;;;6.22;;
64562;SDS011;50961;48.184;11.636;2022-07-06T05:34:09;11.20;;;6.55;;
64562;SDS011;50961;48.184;11.636;2022-07-06T05:36:34;9.88;;;6.38;;
64562;SDS011;50961;48.184;11.636;2022-07-06T05:39:00;10.63;;;6.68;;
64562;SDS011;50961;48.184;11.636;2022-07-06T05:41:25;10.57;;;7.50;;
64562;SDS011;50961;48.184;11.636;2022-07-06T05:43:50;9.23;;;7.50;;
64562;SDS011;50961;48.184;11.636;2022-07-06T05:46:16;13.93;;;7.55;;
64562;SDS011;50961;48.184;11.636;2022-07-06T05:48:41;9.52;;;7.50;;
64562;SDS011;50961;48.184;11.636;2022-07-06T05:51:42;10.52;;;7.63;;
64562;SDS011;50961;48.184;11.636;2022-07-06T05:54:07;12.48;;;7.40;;
64562;SDS011;50961;48.184;11.636;2022-07-06T05:56:33;11.25;;;7.38;;
64562;SDS011;50961;48.184;11.636;2022-07-06T05:58:58;9.98;;;7.53;;
64562;SDS011;50961;48.184;11.636;2022-07-06T06:01:23;10.32;;;7.28;;
64562;SDS011;50961;48.184;11.636;2022-07-06T06:03:49;11.95;;;7.57;;
64562;SDS011;50961;48.184;11.636;2022-07-06T06:06:14;12.82;;;7.72;;
64562;SDS011;50961;48.184;11.636;2022-07-06T06:08:40;14.73;;;7.82;;
64562;SDS011;50961;48.184;11.636;2022-07-06T06:11:05;13.50;;;8.00;;
64562;SDS011;50961;48.184;11.636;2022-07-06T06:13:30;13.85;;;7.97;;
64562;SDS011;50961;48.184;11.636;2022-07-06T06:15:56;11.23;;;7.22;;
64562;SDS011;50961;48.184;11.636;2022-07-06T06:18:21;9.88;;;7.10;;
64562;SDS011;50961;48.184;11.636;2022-07-06T06:20:46;15.48;;;8.57;;
64562;SDS011;50961;48.184;11.636;2022-07-06T06:23:12;9.45;;;7.32;;
64562;SDS011;50961;48.184;11.636;2022-07-06T06:25:39;12.95;;;7.38;;
64562;SDS011;50961;48.184;11.636;2022-07-06T06:28:05;12.35;;;7.80;;
64562;SDS011;50961;48.184;11.636;2022-07-06T06:30:32;14.20;;;8.93;;
64562;SDS011;50961;48.184;11.636;2022-07-06T06:33:14;13.40;;;8.38;;
64562;SDS011;50961;48.184;11.636;2022-07-06T06:35:42;12.90;;;7.53;;
64562;SDS011;50961;48.184;11.636;2022-07-06T06:38:09;14.00;;;7.57;;
64562;SDS011;50961;48.184;11.636;2022-07-06T06:40:34;11.25;;;7.40;;
64562;SDS011;50961;48.184;11.636;2022-07-06T06:42:59;12.05;;;7.78;;
64562;SDS011;50961;48.184;11.636;2022-07-06T06:45:25;12.98;;;7.88;;
64562;SDS011;50961;48.184;11.636;2022-07-06T06:47:50;11.07;;;7.53;;
64562;SDS011;50961;48.184;11.636;2022-07-06T06:50:16;10.70;;;7.85;;
64562;SDS011;50961;48.184;11.636;2022-07-06T06:52:41;14.98;;;8.07;;
64562;SDS011;50961;48.184;11.636;2022-07-06T06:55:07;13.13;;;8.60;;
64562;SDS011;50961;48.184;11.636;2022-07-06T06:57:32;11.32;;;8.20;;
64562;SDS011;50961;48.184;11.636;2022-07-06T06:59:58;12.57;;;7.38;;
64562;SDS011;50961;48.184;11.636;2022-07-06T07:02:23;11.65;;;7.30;;
64562;SDS011;50961;48.184;11.636;2022-07-06T07:04:49;10.68;;;7.40;;
64562;SDS011;50961;48.184;11.636;2022-07-06T07:07:14;13.80;;;8.77;;
64562;SDS011;50961;48.184;11.636;2022-07-06T07:09:40;13.50;;;8.15;;
64562;SDS011;50961;48.184;11.636;2022-07-06T07:12:06;10.38;;;7.47;;
64562;SDS011;50961;48.184;11.636;2022-07-06T07:14:31;14.32;;;8.15;;
64562;SDS011;50961;48.184;11.636;2022-07-06T07:16:57;11.45;;;8.10;;
64562;SDS011;50961;48.184;11.636;2022-07-06T07:19:22;12.55;;;7.50;;
64562;SDS011;50961;48.184;11.636;2022-07-06T07:21:47;11.48;;;7.80;;
64562;SDS011;50961;48.184;11.636;2022-07-06T07:24:13;12.73;;;8.18;;
64562;SDS011;50961;48.184;11.636;2022-07-06T07:26:38;11.30;;;7.88;;
64562;SDS011;50961;48.184;11.636;2022-07-06T07:29:03;14.50;;;7.90;;
64562;SDS011;50961;48.184;11.636;2022-07-06T07:31:29;12.38;;;8.60;;
64562;SDS011;50961;48.184;11.636;2022-07-06T07:33:54;15.82;;;9.35;;
64562;SDS011;50961;48.184;11.636;2022-07-06T07:36:22;14.30;;;8.77;;
64562;SDS011;50961;48.184;11.636;2022-07-06T07:38:48;11.77;;;8.30;;
64562;SDS011;50961;48.184;11.636;2022-07-06T07:41:14;10.80;;;8.48;;
64562;SDS011;50961;48.184;11.636;2022-07-06T07:43:39;9.82;;;7.43;;
64562;SDS011;50961;48.184;11.636;2022-07-06T07:46:05;11.55;;;7.30;;
64562;SDS011;50961;48.184;11.636;2022-07-06T07:48:30;11.10;;;7.57;;
64562;SDS011;50961;48.184;11.636;2022-07-06T07:50:55;12.30;;;7.82;;
64562;SDS011;50961;48.184;11.636;2022-07-06T07:53:21;12.23;;;7.88;;
64562;SDS011;50961;48.184;11.636;2022-07-06T07:55:46;12.05;;;8.43;;
64562;SDS011;50961;48.184;11.636;2022-07-06T07:58:11;25.85;;;10.85;;
64562;SDS011;50961;48.184;11.636;2022-07-06T08:00:37;11.10;;;7.63;;
64562;SDS011;50961;48.184;11.636;2022-07-06T08:03:02;12.23;;;7.80;;
64562;SDS011;50961;48.184;11.636;2022-07-06T08:05:28;11.27;;;6.70;;
64562;SDS011;50961;48.184;11.636;2022-07-06T08:07:53;16.02;;;7.55;;
64562;SDS011;50961;48.184;11.636;2022-07-06T08:10:19;13.20;;;6.90;;
64562;SDS011;50961;48.184;11.636;2022-07-06T08:12:45;11.45;;;7.63;;
64562;SDS011;50961;48.184;11.636;2022-07-06T08:15:10;12.90;;;7.90;;
64562;SDS011;50961;48.184;11.636;2022-07-06T08:17:36;10.43;;;7.30;;
64562;SDS011;50961;48.184;11.636;2022-07-06T08:20:01;17.92;;;8.55;;
64562;SDS011;50961;48.184;11.636;2022-07-06T08:22:27;9.55;;;7.50;;
64562;SDS011;50961;48.184;11.636;2022-07-06T08:24:54;10.10;;;7.82;;
64562;SDS011;50961;48.184;11.636;2022-07-06T08:27:20;15.05;;;8.60;;
64562;SDS011;50961;48.184;11.636;2022-07-06T08:29:45;12.15;;;8.20;;
64562;SDS011;50961;48.184;11.636;2022-07-06T08:32:11;13.77;;;8.23;;
64562;SDS011;50961;48.184;11.636;2022-07-06T08:34:36;9.70;;;7.38;;
64562;SDS011;50961;48.184;11.636;2022-07-06T08:37:02;16.27;;;8.32;;
64562;SDS011;50961;48.184;11.636;2022-07-06T08:39:27;11.55;;;8.07;;
64562;SDS011;50961;48.184;11.636;2022-07-06T08:41:53;9.05;;;7.63;;
64562;SDS011;50961;48.184;11.636;2022-07-06T08:44:21;11.50;;;7.90;;
64562;SDS011;50961;48.184;11.636;2022-07-06T08:46:48;13.07;;;7.78;;
64562;SDS011;50961;48.184;11.636;2022-07-06T08:49:16;11.77;;;8.27;;
64562;SDS011;50961;48.184;11.636;2022-07-06T08:51:42;11.57;;;8.43;;
64562;SDS011;50961;48.184;11.636;2022-07-06T08:54:08;11.02;;;7.95;;
64562;SDS011;50961;48.184;11.636;2022-07-06T08:56:34;16.30;;;9.10;;
64562;SDS011;50961;48.184;11.636;2022-07-06T08:58:59;50.53;;;12.65;;
64562;SDS011;50961;48.184;11.636;2022-07-06T09:01:25;74.28;;;13.60;;
64562;SDS011;50961;48.184;11.636;2022-07-06T09:03:51;37.25;;;9.93;;
64562;SDS011;50961;48.184;11.636;2022-07-06T09:06:19;17.58;;;8.93;;
64562;SDS011;50961;48.184;11.636;2022-07-06T09:08:49;19.50;;;9.52;;
64562;SDS011;50961;48.184;11.636;2022-07-06T09:11:17;15.68;;;8.95;;
64562;SDS011;50961;48.184;11.636;2022-07-06T09:13:43;10.70;;;8.88;;
64562;SDS011;50961;48.184;11.636;2022-07-06T09:16:09;15.70;;;8.73;;
64562;SDS011;50961;48.184;11.636;2022-07-06T09:18:36;12.10;;;8.85;;
64562;SDS011;50961;48.184;11.636;2022-07-06T09:21:07;20.73;;;9.63;;
64562;SDS011;50961;48.184;11.636;2022-07-06T09:23:33;15.90;;;9.57;;
64562;SDS011;50961;48.184;11.636;2022-07-06T09:26:01;13.30;;;9.40;;
64562;SDS011;50961;48.184;11.636;2022-07-06T09:29:01;12.57;;;9.65;;
64562;SDS011;50961;48.184;11.636;2022-07-06T09:31:22;21.52;;;8.65;;
64562;SDS011;50961;48.184;11.636;2022-07-06T09:33:58;12.32;;;8.32;;
64562;SDS011;50961;48.184;11.636;2022-07-06T09:36:43;15.32;;;8.50;;
64562;SDS011;50961;48.184;11.636;2022-07-06T09:39:20;16.33;;;9.35;;
64562;SDS011;50961;48.184;11.636;2022-07-06T09:41:48;14.00;;;8.93;;
64562;SDS011;50961;48.184;11.636;2022-07-06T09:44:34;12.18;;;9.15;;
64562;SDS011;50961;48.184;11.636;2022-07-06T09:47:05;14.10;;;8.68;;
64562;SDS011;50961;48.184;11.636;2022-07-06T09:49:36;12.77;;;9.00;;
64562;SDS011;50961;48.184;11.636;2022-07-06T09:52:03;12.45;;;9.05;;
64562;SDS011;50961;48.184;11.636;2022-07-06T09:54:30;15.30;;;8.73;;
64562;SDS011;50961;48.184;11.636;2022-07-06T09:56:57;14.40;;;8.70;;
64562;SDS011;50961;48.184;11.636;2022-07-06T09:59:26;11.27;;;8.20;;
64562;SDS011;50961;48.184;11.636;2022-07-06T10:01:54;16.08;;;9.80;;
64562;SDS011;50961;48.184;11.636;2022-07-06T10:04:21;14.48;;;9.25;;
64562;SDS011;50961;48.184;11.636;2022-07-06T10:06:48;12.02;;;9.13;;
64562;SDS011;50961;48.184;11.636;2022-07-06T10:09:14;12.25;;;9.13;;
64562;SDS011;50961;48.184;11.636;2022-07-06T10:11:42;12.93;;;9.45;;
64562;SDS011;50961;48.184;11.636;2022-07-06T10:14:10;22.00;;;8.82;;
64562;SDS011;50961;48.184;11.636;2022-07-06T10:16:38;14.90;;;9.30;;
64562;SDS011;50961;48.184;11.636;2022-07-06T10:19:05;12.55;;;8.45;;
64562;SDS011;50961;48.184;11.636;2022-07-06T10:21:32;10.95;;;8.77;;
64562;SDS011;50961;48.184;11.636;2022-07-06T10:24:00;18.55;;;8.70;;
64562;SDS011;50961;48.184;11.636;2022-07-06T10:26:26;33.90;;;10.27;;
64562;SDS011;50961;48.184;11.636;2022-07-06T10:28:52;20.25;;;9.23;;
64562;SDS011;50961;48.184;11.636;2022-07-06T10:31:17;13.73;;;8.07;;
64562;SDS011;50961;48.184;11.636;2022-07-06T10:33:44;12.85;;;9.07;;
64562;SDS011;50961;48.184;11.636;2022-07-06T10:36:11;11.90;;;9.15;;
64562;SDS011;50961;48.184;11.636;2022-07-06T10:38:37;15.13;;;9.48;;
64562;SDS011;50961;48.184;11.636;2022-07-06T10:41:06;17.70;;;9.30;;
64562;SDS011;50961;48.184;11.636;2022-07-06T10:46:10;10.95;;;9.13;;
64562;SDS011;50961;48.184;11.636;2022-07-06T10:48:38;15.73;;;8.90;;
64562;SDS011;50961;48.184;11.636;2022-07-06T10:51:09;19.08;;;10.43;;
64562;SDS011;50961;48.184;11.636;2022-07-06T10:53:37;17.30;;;10.30;;
64562;SDS011;50961;48.184;11.636;2022-07-06T10:56:07;17.80;;;10.10;;
64562;SDS011;50961;48.184;11.636;2022-07-06T11:01:13;11.40;;;7.72;;
64562;SDS011;50961;48.184;11.636;2022-07-06T11:03:43;18.17;;;8.73;;
64562;SDS011;50961;48.184;11.636;2022-07-06T11:06:36;24.40;;;8.90;;
64562;SDS011;50961;48.184;11.636;2022-07-06T11:09:07;13.63;;;8.10;;
64562;SDS011;50961;48.184;11.636;2022-07-06T11:14:06;12.45;;;9.82;;
64562;SDS011;50961;48.184;11.636;2022-07-06T11:16:36;9.77;;;8.30;;
64562;SDS011;50961;48.184;11.636;2022-07-06T11:19:25;11.55;;;8.95;;
64562;SDS011;50961;48.184;11.636;2022-07-06T11:21:55;12.95;;;7.85;;
64562;SDS011;50961;48.184;11.636;2022-07-06T11:24:27;11.23;;;7.82;;
64562;SDS011;50961;48.184;11.636;2022-07-06T11:26:53;11.02;;;8.25;;
64562;SDS011;50961;48.184;11.636;2022-07-06T11:29:20;10.05;;;8.20;;
64562;SDS011;50961;48.184;11.636;2022-07-06T11:31:47;13.90;;;8.73;;
64562;SDS011;50961;48.184;11.636;2022-07-06T11:34:18;13.27;;;8.27;;
64562;SDS011;50961;48.184;11.636;2022-07-06T11:36:45;13.27;;;8.07;;
64562;SDS011;50961;48.184;11.636;2022-07-06T11:39:11;16.25;;;9.82;;
64562;SDS011;50961;48.184;11.636;2022-07-06T11:41:37;11.68;;;7.10;;
64562;SDS011;50961;48.184;11.636;2022-07-06T11:44:02;11.82;;;7.65;;
64562;SDS011;50961;48.184;11.636;2022-07-06T11:46:34;16.35;;;7.85;;
64562;SDS011;50961;48.184;11.636;2022-07-06T11:49:04;11.60;;;7.40;;
64562;SDS011;50961;48.184;11.636;2022-07-06T11:51:32;15.18;;;8.38;;
64562;SDS011;50961;48.184;11.636;2022-07-06T11:54:00;14.20;;;8.38;;
64562;SDS011;50961;48.184;11.636;2022-07-06T11:56:31;16.35;;;8.60;;
64562;SDS011;50961;48.184;11.636;2022-07-06T11:58:57;12.55;;;7.70;;
64562;SDS011;50961;48.184;11.636;2022-07-06T12:01:24;9.40;;;6.93;;
64562;SDS011;50961;48.184;11.636;2022-07-06T12:03:51;10.93;;;6.85;;
64562;SDS011;50961;48.184;11.636;2022-07-06T12:06:20;8.95;;;6.90;;
64562;SDS011;50961;48.184;11.636;2022-07-06T12:08:56;11.23;;;6.78;;
64562;SDS011;50961;48.184;11.636;2022-07-06T12:11:24;13.20;;;7.03;;
64562;SDS011;50961;48.184;11.636;2022-07-06T12:13:53;9.85;;;6.72;;
64562;SDS011;50961;48.184;11.636;2022-07-06T12:16:20;10.95;;;6.95;;
64562;SDS011;50961;48.184;11.636;2022-07-06T12:18:48;9.57;;;6.63;;
64562;SDS011;50961;48.184;11.636;2022-07-06T12:21:15;8.63;;;6.90;;
64562;SDS011;50961;48.184;11.636;2022-07-06T12:23:47;10.13;;;6.63;;
64562;SDS011;50961;48.184;11.636;2022-07-06T12:26:14;8.43;;;6.28;;
64562;SDS011;50961;48.184;11.636;2022-07-06T12:28:41;7.85;;;6.38;;
64562;SDS011;50961;48.184;11.636;2022-07-06T12:31:08;7.25;;;6.47;;
64562;SDS011;50961;48.184;11.636;2022-07-06T12:33:34;9.63;;;6.20;;
64562;SDS011;50961;48.184;11.636;2022-07-06T12:36:10;8.18;;;6.05;;
64562;SDS011;50961;48.184;11.636;2022-07-06T12:38:40;14.95;;;6.70;;
64562;SDS011;50961;48.184;11.636;2022-07-06T12:41:09;10.70;;;6.57;;
64562;SDS011;50961;48.184;11.636;2022-07-06T12:43:38;14.23;;;6.40;;
64562;SDS011;50961;48.184;11.636;2022-07-06T12:48:56;8.02;;;5.97;;
64562;SDS011;50961;48.184;11.636;2022-07-06T12:51:23;9.77;;;5.72;;
64562;SDS011;50961;48.184;11.636;2022-07-06T12:53:49;8.75;;;6.53;;
64562;SDS011;50961;48.184;11.636;2022-07-06T12:56:15;8.35;;;6.20;;
64562;SDS011;50961;48.184;11.636;2022-07-06T12:58:58;9.43;;;6.30;;
64562;SDS011;50961;48.184;11.636;2022-07-06T13:01:25;8.95;;;6.20;;
64562;SDS011;50961;48.184;11.636;2022-07-06T13:03:54;10.00;;;5.68;;
64562;SDS011;50961;48.184;11.636;2022-07-06T13:06:31;11.32;;;6.43;;
64562;SDS011;50961;48.184;11.636;2022-07-06T13:08:59;13.30;;;5.70;;
64562;SDS011;50961;48.184;11.636;2022-07-06T13:11:25;9.77;;;5.93;;
64562;SDS011;50961;48.184;11.636;2022-07-06T13:13:51;9.00;;;6.07;;
64562;SDS011;50961;48.184;11.636;2022-07-06T13:16:17;13.55;;;6.13;;
64562;SDS011;50961;48.184;11.636;2022-07-06T13:18:43;7.13;;;5.65;;
64562;SDS011;50961;48.184;11.636;2022-07-06T13:21:08;11.73;;;6.10;;
64562;SDS011;50961;48.184;11.636;2022-07-06T13:23:34;11.20;;;6.40;;
64562;SDS011;50961;48.184;11.636;2022-07-06T13:25:59;9.23;;;6.00;;
64562;SDS011;50961;48.184;11.636;2022-07-06T13:28:25;8.95;;;6.00;;
64562;SDS011;50961;48.184;11.636;2022-07-06T13:30:50;8.93;;;5.72;;
64562;SDS011;50961;48.184;11.636;2022-07-06T13:33:15;9.77;;;5.35;;
64562;SDS011;50961;48.184;11.636;2022-07-06T13:35:41;11.82;;;5.65;;
64562;SDS011;50961;48.184;11.636;2022-07-06T13:38:06;9.30;;;5.00;;
64562;SDS011;50961;48.184;11.636;2022-07-06T13:40:33;5.88;;;4.68;;
64562;SDS011;50961;48.184;11.636;2022-07-06T13:43:00;8.38;;;4.88;;
64562;SDS011;50961;48.184;11.636;2022-07-06T13:45:26;7.85;;;5.13;;
64562;SDS011;50961;48.184;11.636;2022-07-06T13:47:51;9.38;;;5.55;;
64562;SDS011;50961;48.184;11.636;2022-07-06T13:50:17;8.63;;;5.13;;
64562;SDS011;50961;48.184;11.636;2022-07-06T13:52:42;7.32;;;5.50;;
64562;SDS011;50961;48.184;11.636;2022-07-06T13:55:08;7.18;;;5.00;;
64562;SDS011;50961;48.184;11.636;2022-07-06T13:57:34;8.35;;;5.03;;
64562;SDS011;50961;48.184;11.636;2022-07-06T13:59:59;7.15;;;4.90;;
64562;SDS011;50961;48.184;11.636;2022-07-06T14:02:25;15.00;;;5.72;;
64562;SDS011;50961;48.184;11.636;2022-07-06T14:04:50;11.13;;;5.40;;
64562;SDS011;50961;48.184;11.636;2022-07-06T14:07:16;24.65;;;6.80;;
64562;SDS011;50961;48.184;11.636;2022-07-06T14:09:41;11.60;;;5.85;;
64562;SDS011;50961;48.184;11.636;2022-07-06T14:12:06;11.98;;;6.47;;
64562;SDS011;50961;48.184;11.636;2022-07-06T14:14:32;7.50;;;5.47;;
64562;SDS011;50961;48.184;11.636;2022-07-06T14:16:57;9.77;;;4.97;;
64562;SDS011;50961;48.184;11.636;2022-07-06T14:19:23;16.63;;;5.80;;
64562;SDS011;50961;48.184;11.636;2022-07-06T14:21:48;22.58;;;6.13;;
64562;SDS011;50961;48.184;11.636;2022-07-06T14:24:14;11.57;;;5.85;;
64562;SDS011;50961;48.184;11.636;2022-07-06T14:26:40;7.00;;;4.93;;
64562;SDS011;50961;48.184;11.636;2022-07-06T14:29:05;8.57;;;4.97;;
64562;SDS011;50961;48.184;11.636;2022-07-06T14:31:31;6.10;;;4.80;;
64562;SDS011;50961;48.184;11.636;2022-07-06T14:33:56;8.02;;;4.95;;
64562;SDS011;50961;48.184;11.636;2022-07-06T14:36:22;8.05;;;4.70;;